Flight Track Log - Related Links

Times and Time Zones

All times are in EDT time to prevent confusion due to time zone crossing. See the VH-CZS flight status page for this flight to view local times or setup timezone preferences in your user account.

Time Position Orientation Groundspeed Altitude Reporting Facility
EDT Latitude Longitude Course Direction KTS MPH feet Rate Location/Type
Fri 01:02:59 AM -35.2895 149.1938 21° North 76 87 2,300  Level Aus ATC (RADAR)
Fri 01:03:49 AM -35.2707 149.2028 21° North 105 121 2,900 635 Climbing Aus ATC (RADAR)
Fri 01:04:24 AM -35.2709 149.2236 91° East 102 117 3,200 632 Climbing Aus ATC (RADAR)
Fri 01:05:24 AM -35.2511 149.2435 39° Northeast 89 102 3,900 626 Climbing Aus ATC (RADAR)
Fri 01:06:19 AM -35.2359 149.2666 51° Northeast 95 109 4,400 400 Climbing Aus ATC (RADAR)
Fri 01:07:09 AM -35.2231 149.2907 57° Northeast 101 116 4,600 143 Climbing Aus ATC (RADAR)
Fri 01:07:43 AM -35.2126 149.3075 53° Northeast 105 121 4,600 -133 Level Aus ATC (RADAR)
Fri 01:08:39 AM -35.1980 149.3337 56° Northeast 101 116 4,400 -57 Descending Aus ATC (RADAR)
Fri 01:09:28 AM -35.1831 149.3551 50° Northeast 97 112 4,500 55 Climbing Aus ATC (RADAR)
Fri 01:10:28 AM -35.1646 149.3820 50° Northeast 102 117 4,500  Level Aus ATC (RADAR)
Fri 01:11:23 AM -35.1490 149.4077 53° Northeast 104 120 4,500  Level Aus ATC (RADAR)
Fri 01:12:18 AM -35.1352 149.4343 58° Northeast 102 117 4,500  Level Aus ATC (RADAR)
Fri 01:15:43 AM -35.0319 149.5292 37° Northeast 4,500  Level Aus ATC (Calculated)
Fri 01:17:00 AM -35.0014 149.5569 37° Northeast  Level FlightAware Approximate
Fri 01:17:20 AM -35.0319 149.5292 360° North 4,500  Level Aus ATC (Calculated)
Fri 01:18:04 AM -35.0319 149.5292 37° Northeast 4,500  Level Aus ATC (Calculated)
Fri 01:19:41 AM -34.9553 149.5985 360° North 4,500  Level Aus ATC (Calculated)
Fri 01:20:47 AM -34.9553 149.5985 270° West 4,500  Level Aus ATC (Calculated)
Fri 01:20:47 AM -34.9553 149.5985 37° Northeast 4,500  Level Aus ATC (Calculated)
Fri 01:22:00 AM -34.9263 149.6247 37° Northeast  Level FlightAware Approximate
Fri 01:23:00 AM -34.9025 149.6462 37° Northeast  Level FlightAware Approximate
Fri 01:24:00 AM -34.8787 149.6677 37° Northeast  Level FlightAware Approximate
Fri 01:25:00 AM -34.8549 149.6892 36° Northeast  Level FlightAware Approximate
Fri 01:26:00 AM -34.8310 149.7106 36° Northeast  Level FlightAware Approximate
Fri 01:27:00 AM -34.8072 149.7321 36° Northeast  Level FlightAware Approximate
Fri 01:28:00 AM -34.7834 149.7535 36° Northeast  Level FlightAware Approximate
Fri 01:29:00 AM -34.7595 149.7750 36° Northeast  Level FlightAware Approximate
Fri 01:29:02 AM -34.7610 149.8548 312° West 3,900  Level Aus ATC (Calculated)
Fri 01:31:00 AM -34.7224 149.8017 311° West  Level FlightAware Approximate
Fri 01:32:00 AM -34.7421 149.8287 132° Southeast  Level FlightAware Approximate
Fri 01:33:00 AM -34.7224 149.8017 312° West  Level FlightAware Approximate
Fri 01:34:00 AM -34.7421 149.8287 132° Southeast  Level FlightAware Approximate
Fri 01:35:00 AM -34.7160 149.8195 51° Northeast  Level FlightAware Approximate
Fri 01:36:00 AM -34.6973 149.8475 51° Northeast  Level FlightAware Approximate
Fri 01:37:00 AM -34.6785 149.8754 51° Northeast  Level FlightAware Approximate
Fri 01:38:00 AM -34.6598 149.9033 51° Northeast  Level FlightAware Approximate
Fri 01:39:00 AM -34.6410 149.9312 51° Northeast  Level FlightAware Approximate
Fri 01:40:00 AM -34.6222 149.9590 51° Northeast  Level FlightAware Approximate
Fri 01:41:00 AM -34.6034 149.9869 51° Northeast  Level FlightAware Approximate
Fri 01:42:00 AM -34.5846 150.0148 51° Northeast  Level FlightAware Approximate
Fri 01:43:00 AM -34.5659 150.0426 51° Northeast  Level FlightAware Approximate
Fri 01:44:00 AM -34.5471 150.0704 51° Northeast  Level FlightAware Approximate
Fri 01:45:00 AM -34.5283 150.0982 51° Northeast  Level FlightAware Approximate
Fri 01:46:00 AM -34.5094 150.1260 51° Northeast  Level FlightAware Approximate
Fri 01:47:00 AM -34.4906 150.1538 51° Northeast  Level FlightAware Approximate
Fri 01:48:00 AM -34.4718 150.1816 51° Northeast  Level FlightAware Approximate
Fri 01:49:00 AM -34.4530 150.2093 51° Northeast  Level FlightAware Approximate
Fri 01:49:47 AM -34.3219 150.4272 234° Southwest 3,900  Level Aus ATC (Calculated)
Fri 01:50:00 AM -34.4342 150.2371 51° Northeast  Level FlightAware Approximate
Fri 01:51:00 AM -34.2973 150.4591 47° Northeast  Level FlightAware Approximate
Fri 01:52:00 AM -34.2770 150.4852 47° Northeast  Level FlightAware Approximate
Fri 01:53:00 AM -34.2568 150.5114 47° Northeast  Level FlightAware Approximate
Fri 01:54:00 AM -34.2365 150.5376 47° Northeast  Level FlightAware Approximate
Fri 01:55:00 AM -34.2162 150.5637 47° Northeast  Level FlightAware Approximate
Fri 01:56:00 AM -34.1959 150.5898 47° Northeast  Level FlightAware Approximate
Fri 01:57:00 AM -34.1756 150.6159 47° Northeast  Level FlightAware Approximate
Fri 01:57:35 AM -34.1750 150.6167 360° North  Level Aus ATC (Calculated)
Fri 01:59:00 AM -34.1330 150.6167 North  Level FlightAware Approximate
Fri 02:00:00 AM -34.1627 150.6167 180° South  Level FlightAware Approximate
Fri 02:01:00 AM -34.1923 150.6167 180° South  Level FlightAware Approximate
Fri 02:01:18 AM -34.0402 150.6872 205° Southwest  Level Aus ATC (Calculated)
Fri 02:02:00 AM -34.1627 150.6167 North  Level FlightAware Approximate
Fri 02:03:00 AM -34.0403 150.6872 203° Southwest  Level Estimated
Fri 02:04:00 AM -34.0403 150.6872 23° Northeast  Level Estimated
Fri 02:05:00 AM -34.0403 150.6872 348° North  Level Estimated
Fri 02:06:00 AM -34.0403 150.6872 348° North  Level Estimated
Fri 02:07:00 AM -34.0403 150.6872 348° North  Level Estimated
Fri 02:08:00 AM -34.0403 150.6872 348° North  Level Estimated

Login

Don't have an account? Register now (free) for customized features, flight alerts, and more!